<?xml version="1.0" encoding="UTF-8" standalone="no" ?>
<gpx xmlns="http://www.topografix.com/GPX/1/1" xmlns:xsi="http://www.w3.org/2001/XMLSchema-instance" xsi:schemaLocation="http://www.topografix.com/GPX/1/1 http://www.topografix.com/GPX/1/1/gpx.xsd" version="1.1" creator="VisuGPX - https://www.visugpx.com">
  <metadata>
    <name>VIGNY CHAUSSE JULES CESAR</name>
    <desc><![CDATA[FAIT]]></desc>
  </metadata>
  <trk>
    <name><![CDATA[VIGNY CHAUSSE JULES CESAR-13417093]]></name>
    <trkseg>
      <trkpt lat="49.07354" lon="1.92577">
        <ele>69</ele>
        <time>2023-01-08T18:43:09Z</time>
      </trkpt>
      <trkpt lat="49.07355" lon="1.92581">
        <ele>69</ele>
        <time>2023-01-08T18:43:13Z</time>
      </trkpt>
      <trkpt lat="49.07355" lon="1.92573">
        <ele>70</ele>
        <time>2023-01-08T18:43:20Z</time>
      </trkpt>
      <trkpt lat="49.07342" lon="1.92544">
        <ele>69</ele>
        <time>2023-01-08T18:43:50Z</time>
      </trkpt>
      <trkpt lat="49.07357" lon="1.92485">
        <ele>72</ele>
        <time>2023-01-08T18:44:46Z</time>
      </trkpt>
      <trkpt lat="49.07358" lon="1.92455">
        <ele>72</ele>
        <time>2023-01-08T18:45:12Z</time>
      </trkpt>
      <trkpt lat="49.07419" lon="1.92254">
        <ele>76</ele>
        <time>2023-01-08T18:48:26Z</time>
      </trkpt>
      <trkpt lat="49.07422" lon="1.92211">
        <ele>77</ele>
        <time>2023-01-08T18:49:03Z</time>
      </trkpt>
      <trkpt lat="49.07433" lon="1.92162">
        <ele>79</ele>
        <time>2023-01-08T18:49:49Z</time>
      </trkpt>
      <trkpt lat="49.07463" lon="1.92052">
        <ele>80</ele>
        <time>2023-01-08T18:51:33Z</time>
      </trkpt>
      <trkpt lat="49.0747" lon="1.92006">
        <ele>79</ele>
        <time>2023-01-08T18:52:14Z</time>
      </trkpt>
      <trkpt lat="49.07476" lon="1.91984">
        <ele>78</ele>
        <time>2023-01-08T18:52:35Z</time>
      </trkpt>
      <trkpt lat="49.07482" lon="1.91977">
        <ele>78</ele>
        <time>2023-01-08T18:52:45Z</time>
      </trkpt>
      <trkpt lat="49.07497" lon="1.91976">
        <ele>78</ele>
        <time>2023-01-08T18:53:05Z</time>
      </trkpt>
      <trkpt lat="49.07519" lon="1.91986">
        <ele>78</ele>
        <time>2023-01-08T18:53:36Z</time>
      </trkpt>
      <trkpt lat="49.07551" lon="1.92013">
        <ele>79</ele>
        <time>2023-01-08T18:54:25Z</time>
      </trkpt>
      <trkpt lat="49.0757" lon="1.92022">
        <ele>78</ele>
        <time>2023-01-08T18:54:51Z</time>
      </trkpt>
      <trkpt lat="49.0758" lon="1.92034">
        <ele>79</ele>
        <time>2023-01-08T18:55:08Z</time>
      </trkpt>
      <trkpt lat="49.07589" lon="1.92037">
        <ele>79</ele>
        <time>2023-01-08T18:55:20Z</time>
      </trkpt>
      <trkpt lat="49.07612" lon="1.92058">
        <ele>79</ele>
        <time>2023-01-08T18:55:56Z</time>
      </trkpt>
      <trkpt lat="49.07632" lon="1.92056">
        <ele>78</ele>
        <time>2023-01-08T18:56:23Z</time>
      </trkpt>
      <trkpt lat="49.07658" lon="1.92065">
        <ele>77</ele>
        <time>2023-01-08T18:56:58Z</time>
      </trkpt>
      <trkpt lat="49.07689" lon="1.9206">
        <ele>74</ele>
        <time>2023-01-08T18:57:40Z</time>
      </trkpt>
      <trkpt lat="49.07714" lon="1.92072">
        <ele>73</ele>
        <time>2023-01-08T18:58:15Z</time>
      </trkpt>
      <trkpt lat="49.07748" lon="1.92075">
        <ele>69</ele>
        <time>2023-01-08T18:59:01Z</time>
      </trkpt>
      <trkpt lat="49.07852" lon="1.92107">
        <ele>72</ele>
        <time>2023-01-08T19:01:22Z</time>
      </trkpt>
      <trkpt lat="49.07865" lon="1.92133">
        <ele>73</ele>
        <time>2023-01-08T19:01:51Z</time>
      </trkpt>
      <trkpt lat="49.07857" lon="1.92224">
        <ele>75</ele>
        <time>2023-01-08T19:03:11Z</time>
      </trkpt>
      <trkpt lat="49.07851" lon="1.9225">
        <ele>76</ele>
        <time>2023-01-08T19:03:35Z</time>
      </trkpt>
      <trkpt lat="49.07858" lon="1.92262">
        <ele>76</ele>
        <time>2023-01-08T19:03:49Z</time>
      </trkpt>
      <trkpt lat="49.07877" lon="1.92264">
        <ele>77</ele>
        <time>2023-01-08T19:04:14Z</time>
      </trkpt>
      <trkpt lat="49.07908" lon="1.92285">
        <ele>79</ele>
        <time>2023-01-08T19:05:00Z</time>
      </trkpt>
      <trkpt lat="49.07957" lon="1.923">
        <ele>85</ele>
        <time>2023-01-08T19:06:06Z</time>
      </trkpt>
      <trkpt lat="49.0797" lon="1.923">
        <ele>86</ele>
        <time>2023-01-08T19:06:24Z</time>
      </trkpt>
      <trkpt lat="49.08001" lon="1.92309">
        <ele>90</ele>
        <time>2023-01-08T19:07:06Z</time>
      </trkpt>
      <trkpt lat="49.0805" lon="1.92309">
        <ele>96</ele>
        <time>2023-01-08T19:08:11Z</time>
      </trkpt>
      <trkpt lat="49.08088" lon="1.92319">
        <ele>100</ele>
        <time>2023-01-08T19:09:03Z</time>
      </trkpt>
      <trkpt lat="49.08128" lon="1.92293">
        <ele>105</ele>
        <time>2023-01-08T19:10:01Z</time>
      </trkpt>
      <trkpt lat="49.0815" lon="1.92265">
        <ele>108</ele>
        <time>2023-01-08T19:10:39Z</time>
      </trkpt>
      <trkpt lat="49.08167" lon="1.92257">
        <ele>110</ele>
        <time>2023-01-08T19:11:03Z</time>
      </trkpt>
      <trkpt lat="49.08181" lon="1.92244">
        <ele>111</ele>
        <time>2023-01-08T19:11:25Z</time>
      </trkpt>
      <trkpt lat="49.08207" lon="1.92253">
        <ele>114</ele>
        <time>2023-01-08T19:12:00Z</time>
      </trkpt>
      <trkpt lat="49.08218" lon="1.92249">
        <ele>115</ele>
        <time>2023-01-08T19:12:15Z</time>
      </trkpt>
      <trkpt lat="49.08339" lon="1.92236">
        <ele>120</ele>
        <time>2023-01-08T19:14:57Z</time>
      </trkpt>
      <trkpt lat="49.08402" lon="1.9222">
        <ele>122</ele>
        <time>2023-01-08T19:16:22Z</time>
      </trkpt>
      <trkpt lat="49.08434" lon="1.92221">
        <ele>124</ele>
        <time>2023-01-08T19:17:05Z</time>
      </trkpt>
      <trkpt lat="49.08456" lon="1.92216">
        <ele>126</ele>
        <time>2023-01-08T19:17:35Z</time>
      </trkpt>
      <trkpt lat="49.08479" lon="1.9222">
        <ele>128</ele>
        <time>2023-01-08T19:18:06Z</time>
      </trkpt>
      <trkpt lat="49.08495" lon="1.92228">
        <ele>130</ele>
        <time>2023-01-08T19:18:28Z</time>
      </trkpt>
      <trkpt lat="49.0851" lon="1.92224">
        <ele>131</ele>
        <time>2023-01-08T19:18:48Z</time>
      </trkpt>
      <trkpt lat="49.08524" lon="1.92199">
        <ele>129</ele>
        <time>2023-01-08T19:19:17Z</time>
      </trkpt>
      <trkpt lat="49.08552" lon="1.92176">
        <ele>129</ele>
        <time>2023-01-08T19:20:00Z</time>
      </trkpt>
      <trkpt lat="49.08559" lon="1.92146">
        <ele>128</ele>
        <time>2023-01-08T19:20:27Z</time>
      </trkpt>
      <trkpt lat="49.08575" lon="1.92118">
        <ele>129</ele>
        <time>2023-01-08T19:21:00Z</time>
      </trkpt>
      <trkpt lat="49.08587" lon="1.92062">
        <ele>129</ele>
        <time>2023-01-08T19:21:51Z</time>
      </trkpt>
      <trkpt lat="49.08602" lon="1.92019">
        <ele>128</ele>
        <time>2023-01-08T19:22:34Z</time>
      </trkpt>
      <trkpt lat="49.0862" lon="1.91983">
        <ele>128</ele>
        <time>2023-01-08T19:23:14Z</time>
      </trkpt>
      <trkpt lat="49.08629" lon="1.9194">
        <ele>127</ele>
        <time>2023-01-08T19:23:53Z</time>
      </trkpt>
      <trkpt lat="49.08643" lon="1.91903">
        <ele>128</ele>
        <time>2023-01-08T19:24:30Z</time>
      </trkpt>
      <trkpt lat="49.08653" lon="1.9189">
        <ele>128</ele>
        <time>2023-01-08T19:24:48Z</time>
      </trkpt>
      <trkpt lat="49.08658" lon="1.91862">
        <ele>128</ele>
        <time>2023-01-08T19:25:13Z</time>
      </trkpt>
      <trkpt lat="49.08669" lon="1.91836">
        <ele>128</ele>
        <time>2023-01-08T19:25:40Z</time>
      </trkpt>
      <trkpt lat="49.08672" lon="1.91832">
        <ele>128</ele>
        <time>2023-01-08T19:25:46Z</time>
      </trkpt>
      <trkpt lat="49.0868" lon="1.91834">
        <ele>128</ele>
        <time>2023-01-08T19:25:56Z</time>
      </trkpt>
      <trkpt lat="49.08744" lon="1.91884">
        <ele>131</ele>
        <time>2023-01-08T19:27:32Z</time>
      </trkpt>
      <trkpt lat="49.08759" lon="1.91893">
        <ele>131</ele>
        <time>2023-01-08T19:27:54Z</time>
      </trkpt>
      <trkpt lat="49.08766" lon="1.91893">
        <ele>131</ele>
        <time>2023-01-08T19:28:03Z</time>
      </trkpt>
      <trkpt lat="49.08776" lon="1.91876">
        <ele>131</ele>
        <time>2023-01-08T19:28:23Z</time>
      </trkpt>
      <trkpt lat="49.08781" lon="1.91846">
        <ele>131</ele>
        <time>2023-01-08T19:28:50Z</time>
      </trkpt>
      <trkpt lat="49.08778" lon="1.91833">
        <ele>131</ele>
        <time>2023-01-08T19:29:02Z</time>
      </trkpt>
      <trkpt lat="49.08785" lon="1.91809">
        <ele>131</ele>
        <time>2023-01-08T19:29:25Z</time>
      </trkpt>
      <trkpt lat="49.08798" lon="1.91796">
        <ele>131</ele>
        <time>2023-01-08T19:29:46Z</time>
      </trkpt>
      <trkpt lat="49.08808" lon="1.91797">
        <ele>131</ele>
        <time>2023-01-08T19:29:59Z</time>
      </trkpt>
      <trkpt lat="49.088" lon="1.91798">
        <ele>131</ele>
        <time>2023-01-08T19:30:10Z</time>
      </trkpt>
      <trkpt lat="49.08804" lon="1.918">
        <ele>131</ele>
        <time>2023-01-08T19:30:16Z</time>
      </trkpt>
      <trkpt lat="49.08811" lon="1.91797">
        <ele>131</ele>
        <time>2023-01-08T19:30:25Z</time>
      </trkpt>
      <trkpt lat="49.08807" lon="1.91798">
        <ele>131</ele>
        <time>2023-01-08T19:30:31Z</time>
      </trkpt>
      <trkpt lat="49.0881" lon="1.91798">
        <ele>131</ele>
        <time>2023-01-08T19:30:35Z</time>
      </trkpt>
      <trkpt lat="49.08809" lon="1.91794">
        <ele>131</ele>
        <time>2023-01-08T19:30:39Z</time>
      </trkpt>
      <trkpt lat="49.08809" lon="1.91801">
        <ele>131</ele>
        <time>2023-01-08T19:30:45Z</time>
      </trkpt>
      <trkpt lat="49.08817" lon="1.91802">
        <ele>131</ele>
        <time>2023-01-08T19:30:55Z</time>
      </trkpt>
      <trkpt lat="49.08814" lon="1.91797">
        <ele>131</ele>
        <time>2023-01-08T19:31:01Z</time>
      </trkpt>
      <trkpt lat="49.08817" lon="1.9177">
        <ele>131</ele>
        <time>2023-01-08T19:31:25Z</time>
      </trkpt>
      <trkpt lat="49.08822" lon="1.91757">
        <ele>131</ele>
        <time>2023-01-08T19:31:38Z</time>
      </trkpt>
      <trkpt lat="49.08827" lon="1.91755">
        <ele>131</ele>
        <time>2023-01-08T19:31:45Z</time>
      </trkpt>
      <trkpt lat="49.08854" lon="1.91786">
        <ele>131</ele>
        <time>2023-01-08T19:32:30Z</time>
      </trkpt>
      <trkpt lat="49.0886" lon="1.9181">
        <ele>131</ele>
        <time>2023-01-08T19:32:53Z</time>
      </trkpt>
      <trkpt lat="49.0881" lon="1.91913">
        <ele>130</ele>
        <time>2023-01-08T19:34:45Z</time>
      </trkpt>
      <trkpt lat="49.08804" lon="1.91936">
        <ele>130</ele>
        <time>2023-01-08T19:35:07Z</time>
      </trkpt>
      <trkpt lat="49.08808" lon="1.91947">
        <ele>129</ele>
        <time>2023-01-08T19:35:18Z</time>
      </trkpt>
      <trkpt lat="49.08837" lon="1.9197">
        <ele>129</ele>
        <time>2023-01-08T19:36:01Z</time>
      </trkpt>
      <trkpt lat="49.08824" lon="1.91963">
        <ele>129</ele>
        <time>2023-01-08T19:36:20Z</time>
      </trkpt>
      <trkpt lat="49.088" lon="1.91939">
        <ele>130</ele>
        <time>2023-01-08T19:36:58Z</time>
      </trkpt>
      <trkpt lat="49.08791" lon="1.91942">
        <ele>130</ele>
        <time>2023-01-08T19:37:10Z</time>
      </trkpt>
      <trkpt lat="49.08786" lon="1.91949">
        <ele>130</ele>
        <time>2023-01-08T19:37:19Z</time>
      </trkpt>
      <trkpt lat="49.08766" lon="1.91987">
        <ele>130</ele>
        <time>2023-01-08T19:38:02Z</time>
      </trkpt>
      <trkpt lat="49.08758" lon="1.92013">
        <ele>130</ele>
        <time>2023-01-08T19:38:27Z</time>
      </trkpt>
      <trkpt lat="49.08738" lon="1.92035">
        <ele>130</ele>
        <time>2023-01-08T19:39:00Z</time>
      </trkpt>
      <trkpt lat="49.08713" lon="1.92084">
        <ele>130</ele>
        <time>2023-01-08T19:39:54Z</time>
      </trkpt>
      <trkpt lat="49.08686" lon="1.92156">
        <ele>132</ele>
        <time>2023-01-08T19:41:07Z</time>
      </trkpt>
      <trkpt lat="49.08654" lon="1.92267">
        <ele>132</ele>
        <time>2023-01-08T19:42:53Z</time>
      </trkpt>
      <trkpt lat="49.08672" lon="1.92284">
        <ele>132</ele>
        <time>2023-01-08T19:43:21Z</time>
      </trkpt>
      <trkpt lat="49.08693" lon="1.92295">
        <ele>131</ele>
        <time>2023-01-08T19:43:50Z</time>
      </trkpt>
      <trkpt lat="49.08711" lon="1.92319">
        <ele>131</ele>
        <time>2023-01-08T19:44:22Z</time>
      </trkpt>
      <trkpt lat="49.08725" lon="1.9233">
        <ele>130</ele>
        <time>2023-01-08T19:44:43Z</time>
      </trkpt>
      <trkpt lat="49.08734" lon="1.92334">
        <ele>130</ele>
        <time>2023-01-08T19:44:56Z</time>
      </trkpt>
      <trkpt lat="49.08737" lon="1.92329">
        <ele>130</ele>
        <time>2023-01-08T19:45:02Z</time>
      </trkpt>
      <trkpt lat="49.08792" lon="1.9237">
        <ele>129</ele>
        <time>2023-01-08T19:46:23Z</time>
      </trkpt>
      <trkpt lat="49.08832" lon="1.92383">
        <ele>127</ele>
        <time>2023-01-08T19:47:18Z</time>
      </trkpt>
      <trkpt lat="49.08912" lon="1.92433">
        <ele>123</ele>
        <time>2023-01-08T19:49:13Z</time>
      </trkpt>
      <trkpt lat="49.0898" lon="1.92492">
        <ele>121</ele>
        <time>2023-01-08T19:50:58Z</time>
      </trkpt>
      <trkpt lat="49.09008" lon="1.9251">
        <ele>120</ele>
        <time>2023-01-08T19:51:38Z</time>
      </trkpt>
      <trkpt lat="49.09096" lon="1.92591">
        <ele>117</ele>
        <time>2023-01-08T19:53:55Z</time>
      </trkpt>
      <trkpt lat="49.09122" lon="1.92607">
        <ele>116</ele>
        <time>2023-01-08T19:54:33Z</time>
      </trkpt>
      <trkpt lat="49.09193" lon="1.92663">
        <ele>115</ele>
        <time>2023-01-08T19:56:19Z</time>
      </trkpt>
      <trkpt lat="49.09219" lon="1.92688">
        <ele>114</ele>
        <time>2023-01-08T19:57:00Z</time>
      </trkpt>
      <trkpt lat="49.09263" lon="1.92719">
        <ele>113</ele>
        <time>2023-01-08T19:58:05Z</time>
      </trkpt>
      <trkpt lat="49.09317" lon="1.9277">
        <ele>113</ele>
        <time>2023-01-08T19:59:30Z</time>
      </trkpt>
      <trkpt lat="49.09383" lon="1.92822">
        <ele>114</ele>
        <time>2023-01-08T20:01:09Z</time>
      </trkpt>
      <trkpt lat="49.09395" lon="1.92804">
        <ele>114</ele>
        <time>2023-01-08T20:01:31Z</time>
      </trkpt>
      <trkpt lat="49.0941" lon="1.92766">
        <ele>115</ele>
        <time>2023-01-08T20:02:10Z</time>
      </trkpt>
      <trkpt lat="49.09466" lon="1.92669">
        <ele>117</ele>
        <time>2023-01-08T20:04:03Z</time>
      </trkpt>
      <trkpt lat="49.09493" lon="1.92614">
        <ele>118</ele>
        <time>2023-01-08T20:05:03Z</time>
      </trkpt>
      <trkpt lat="49.0953" lon="1.92554">
        <ele>119</ele>
        <time>2023-01-08T20:06:15Z</time>
      </trkpt>
      <trkpt lat="49.09614" lon="1.92393">
        <ele>118</ele>
        <time>2023-01-08T20:09:15Z</time>
      </trkpt>
      <trkpt lat="49.09687" lon="1.92263">
        <ele>116</ele>
        <time>2023-01-08T20:11:45Z</time>
      </trkpt>
      <trkpt lat="49.09694" lon="1.92274">
        <ele>115</ele>
        <time>2023-01-08T20:11:58Z</time>
      </trkpt>
      <trkpt lat="49.09688" lon="1.92261">
        <ele>116</ele>
        <time>2023-01-08T20:12:12Z</time>
      </trkpt>
      <trkpt lat="49.09691" lon="1.92248">
        <ele>115</ele>
        <time>2023-01-08T20:12:24Z</time>
      </trkpt>
      <trkpt lat="49.09776" lon="1.92087">
        <ele>117</ele>
        <time>2023-01-08T20:15:25Z</time>
      </trkpt>
      <trkpt lat="49.09787" lon="1.9208">
        <ele>117</ele>
        <time>2023-01-08T20:15:41Z</time>
      </trkpt>
      <trkpt lat="49.09818" lon="1.92117">
        <ele>115</ele>
        <time>2023-01-08T20:16:33Z</time>
      </trkpt>
      <trkpt lat="49.09824" lon="1.92118">
        <ele>115</ele>
        <time>2023-01-08T20:16:41Z</time>
      </trkpt>
      <trkpt lat="49.09833" lon="1.92113">
        <ele>115</ele>
        <time>2023-01-08T20:16:54Z</time>
      </trkpt>
      <trkpt lat="49.09864" lon="1.92052">
        <ele>115</ele>
        <time>2023-01-08T20:18:02Z</time>
      </trkpt>
      <trkpt lat="49.09896" lon="1.91955">
        <ele>116</ele>
        <time>2023-01-08T20:19:36Z</time>
      </trkpt>
      <trkpt lat="49.09907" lon="1.91939">
        <ele>115</ele>
        <time>2023-01-08T20:19:57Z</time>
      </trkpt>
      <trkpt lat="49.09928" lon="1.91967">
        <ele>114</ele>
        <time>2023-01-08T20:20:34Z</time>
      </trkpt>
      <trkpt lat="49.09986" lon="1.92082">
        <ele>111</ele>
        <time>2023-01-08T20:22:41Z</time>
      </trkpt>
      <trkpt lat="49.10168" lon="1.92495">
        <ele>103</ele>
        <time>2023-01-08T20:29:56Z</time>
      </trkpt>
      <trkpt lat="49.10209" lon="1.92537">
        <ele>103</ele>
        <time>2023-01-08T20:31:02Z</time>
      </trkpt>
      <trkpt lat="49.10237" lon="1.92556">
        <ele>103</ele>
        <time>2023-01-08T20:31:42Z</time>
      </trkpt>
      <trkpt lat="49.10269" lon="1.92589">
        <ele>102</ele>
        <time>2023-01-08T20:32:34Z</time>
      </trkpt>
      <trkpt lat="49.10275" lon="1.92593">
        <ele>102</ele>
        <time>2023-01-08T20:32:43Z</time>
      </trkpt>
      <trkpt lat="49.10284" lon="1.92587">
        <ele>102</ele>
        <time>2023-01-08T20:32:56Z</time>
      </trkpt>
      <trkpt lat="49.10292" lon="1.92564">
        <ele>102</ele>
        <time>2023-01-08T20:33:19Z</time>
      </trkpt>
      <trkpt lat="49.10315" lon="1.92524">
        <ele>101</ele>
        <time>2023-01-08T20:34:05Z</time>
      </trkpt>
      <trkpt lat="49.10368" lon="1.92387">
        <ele>103</ele>
        <time>2023-01-08T20:36:24Z</time>
      </trkpt>
      <trkpt lat="49.10385" lon="1.92352">
        <ele>103</ele>
        <time>2023-01-08T20:37:02Z</time>
      </trkpt>
      <trkpt lat="49.10412" lon="1.92276">
        <ele>104</ele>
        <time>2023-01-08T20:38:18Z</time>
      </trkpt>
      <trkpt lat="49.10513" lon="1.92054">
        <ele>106</ele>
        <time>2023-01-08T20:42:14Z</time>
      </trkpt>
      <trkpt lat="49.10716" lon="1.91582">
        <ele>103</ele>
        <time>2023-01-08T20:50:27Z</time>
      </trkpt>
      <trkpt lat="49.10743" lon="1.91512">
        <ele>104</ele>
        <time>2023-01-08T20:51:38Z</time>
      </trkpt>
      <trkpt lat="49.1074" lon="1.91507">
        <ele>104</ele>
        <time>2023-01-08T20:51:44Z</time>
      </trkpt>
      <trkpt lat="49.10753" lon="1.91491">
        <ele>104</ele>
        <time>2023-01-08T20:52:06Z</time>
      </trkpt>
      <trkpt lat="49.10787" lon="1.91422">
        <ele>105</ele>
        <time>2023-01-08T20:53:22Z</time>
      </trkpt>
      <trkpt lat="49.10844" lon="1.91264">
        <ele>105</ele>
        <time>2023-01-08T20:56:00Z</time>
      </trkpt>
      <trkpt lat="49.10878" lon="1.91195">
        <ele>105</ele>
        <time>2023-01-08T20:57:15Z</time>
      </trkpt>
      <trkpt lat="49.10913" lon="1.91098">
        <ele>104</ele>
        <time>2023-01-08T20:58:52Z</time>
      </trkpt>
      <trkpt lat="49.1094" lon="1.91038">
        <ele>105</ele>
        <time>2023-01-08T20:59:55Z</time>
      </trkpt>
      <trkpt lat="49.10959" lon="1.90978">
        <ele>106</ele>
        <time>2023-01-08T21:00:54Z</time>
      </trkpt>
      <trkpt lat="49.10978" lon="1.90937">
        <ele>108</ele>
        <time>2023-01-08T21:01:37Z</time>
      </trkpt>
      <trkpt lat="49.10992" lon="1.90925">
        <ele>109</ele>
        <time>2023-01-08T21:01:59Z</time>
      </trkpt>
      <trkpt lat="49.1099" lon="1.90928">
        <ele>109</ele>
        <time>2023-01-08T21:02:03Z</time>
      </trkpt>
      <trkpt lat="49.11002" lon="1.909">
        <ele>110</ele>
        <time>2023-01-08T21:02:32Z</time>
      </trkpt>
      <trkpt lat="49.10994" lon="1.90911">
        <ele>110</ele>
        <time>2023-01-08T21:02:46Z</time>
      </trkpt>
      <trkpt lat="49.10993" lon="1.90907">
        <ele>110</ele>
        <time>2023-01-08T21:02:50Z</time>
      </trkpt>
      <trkpt lat="49.10992" lon="1.90918">
        <ele>109</ele>
        <time>2023-01-08T21:03:00Z</time>
      </trkpt>
      <trkpt lat="49.10989" lon="1.90919">
        <ele>109</ele>
        <time>2023-01-08T21:03:04Z</time>
      </trkpt>
      <trkpt lat="49.10988" lon="1.90909">
        <ele>109</ele>
        <time>2023-01-08T21:03:13Z</time>
      </trkpt>
      <trkpt lat="49.11044" lon="1.90796">
        <ele>114</ele>
        <time>2023-01-08T21:05:16Z</time>
      </trkpt>
      <trkpt lat="49.1107" lon="1.90727">
        <ele>112</ele>
        <time>2023-01-08T21:06:26Z</time>
      </trkpt>
      <trkpt lat="49.11113" lon="1.90641">
        <ele>109</ele>
        <time>2023-01-08T21:08:00Z</time>
      </trkpt>
      <trkpt lat="49.11118" lon="1.90621">
        <ele>109</ele>
        <time>2023-01-08T21:08:19Z</time>
      </trkpt>
      <trkpt lat="49.11148" lon="1.9055">
        <ele>110</ele>
        <time>2023-01-08T21:09:33Z</time>
      </trkpt>
      <trkpt lat="49.11153" lon="1.90552">
        <ele>110</ele>
        <time>2023-01-08T21:09:40Z</time>
      </trkpt>
      <trkpt lat="49.11188" lon="1.9061">
        <ele>111</ele>
        <time>2023-01-08T21:10:49Z</time>
      </trkpt>
      <trkpt lat="49.11201" lon="1.90617">
        <ele>111</ele>
        <time>2023-01-08T21:11:07Z</time>
      </trkpt>
      <trkpt lat="49.11206" lon="1.90614">
        <ele>112</ele>
        <time>2023-01-08T21:11:14Z</time>
      </trkpt>
      <trkpt lat="49.11216" lon="1.90632">
        <ele>112</ele>
        <time>2023-01-08T21:11:35Z</time>
      </trkpt>
      <trkpt lat="49.11219" lon="1.90651">
        <ele>112</ele>
        <time>2023-01-08T21:11:52Z</time>
      </trkpt>
      <trkpt lat="49.11225" lon="1.90657">
        <ele>112</ele>
        <time>2023-01-08T21:12:02Z</time>
      </trkpt>
      <trkpt lat="49.11215" lon="1.90628">
        <ele>112</ele>
        <time>2023-01-08T21:12:30Z</time>
      </trkpt>
      <trkpt lat="49.11187" lon="1.90603">
        <ele>111</ele>
        <time>2023-01-08T21:13:14Z</time>
      </trkpt>
      <trkpt lat="49.11181" lon="1.90589">
        <ele>111</ele>
        <time>2023-01-08T21:13:28Z</time>
      </trkpt>
      <trkpt lat="49.11169" lon="1.90576">
        <ele>110</ele>
        <time>2023-01-08T21:13:48Z</time>
      </trkpt>
      <trkpt lat="49.11153" lon="1.90542">
        <ele>110</ele>
        <time>2023-01-08T21:14:24Z</time>
      </trkpt>
      <trkpt lat="49.11162" lon="1.90505">
        <ele>110</ele>
        <time>2023-01-08T21:14:59Z</time>
      </trkpt>
      <trkpt lat="49.11186" lon="1.90458">
        <ele>111</ele>
        <time>2023-01-08T21:15:51Z</time>
      </trkpt>
      <trkpt lat="49.11189" lon="1.90434">
        <ele>111</ele>
        <time>2023-01-08T21:16:12Z</time>
      </trkpt>
      <trkpt lat="49.11197" lon="1.90421">
        <ele>111</ele>
        <time>2023-01-08T21:16:28Z</time>
      </trkpt>
      <trkpt lat="49.11195" lon="1.90413">
        <ele>111</ele>
        <time>2023-01-08T21:16:35Z</time>
      </trkpt>
      <trkpt lat="49.11236" lon="1.90328">
        <ele>113</ele>
        <time>2023-01-08T21:18:08Z</time>
      </trkpt>
      <trkpt lat="49.1126" lon="1.90264">
        <ele>113</ele>
        <time>2023-01-08T21:19:12Z</time>
      </trkpt>
      <trkpt lat="49.11287" lon="1.90208">
        <ele>112</ele>
        <time>2023-01-08T21:20:13Z</time>
      </trkpt>
      <trkpt lat="49.11309" lon="1.90136">
        <ele>111</ele>
        <time>2023-01-08T21:21:22Z</time>
      </trkpt>
      <trkpt lat="49.11329" lon="1.90111">
        <ele>110</ele>
        <time>2023-01-08T21:21:57Z</time>
      </trkpt>
      <trkpt lat="49.11353" lon="1.90067">
        <ele>109</ele>
        <time>2023-01-08T21:22:47Z</time>
      </trkpt>
      <trkpt lat="49.11378" lon="1.8999">
        <ele>109</ele>
        <time>2023-01-08T21:24:02Z</time>
      </trkpt>
      <trkpt lat="49.11454" lon="1.89834">
        <ele>112</ele>
        <time>2023-01-08T21:26:52Z</time>
      </trkpt>
      <trkpt lat="49.11486" lon="1.89742">
        <ele>112</ele>
        <time>2023-01-08T21:28:23Z</time>
      </trkpt>
      <trkpt lat="49.11641" lon="1.89362">
        <ele>112</ele>
        <time>2023-01-08T21:34:54Z</time>
      </trkpt>
      <trkpt lat="49.11712" lon="1.89215">
        <ele>112</ele>
        <time>2023-01-08T21:37:33Z</time>
      </trkpt>
      <trkpt lat="49.11777" lon="1.89056">
        <ele>112</ele>
        <time>2023-01-08T21:40:17Z</time>
      </trkpt>
      <trkpt lat="49.11815" lon="1.88952">
        <ele>112</ele>
        <time>2023-01-08T21:42:01Z</time>
      </trkpt>
      <trkpt lat="49.11824" lon="1.88905">
        <ele>112</ele>
        <time>2023-01-08T21:42:44Z</time>
      </trkpt>
      <trkpt lat="49.11907" lon="1.88724">
        <ele>113</ele>
        <time>2023-01-08T21:45:57Z</time>
      </trkpt>
      <trkpt lat="49.11919" lon="1.88703">
        <ele>113</ele>
        <time>2023-01-08T21:46:21Z</time>
      </trkpt>
      <trkpt lat="49.11924" lon="1.88701">
        <ele>113</ele>
        <time>2023-01-08T21:46:28Z</time>
      </trkpt>
      <trkpt lat="49.11965" lon="1.88595">
        <ele>114</ele>
        <time>2023-01-08T21:48:16Z</time>
      </trkpt>
      <trkpt lat="49.11985" lon="1.88554">
        <ele>115</ele>
        <time>2023-01-08T21:49:00Z</time>
      </trkpt>
      <trkpt lat="49.12012" lon="1.88475">
        <ele>116</ele>
        <time>2023-01-08T21:50:18Z</time>
      </trkpt>
      <trkpt lat="49.1207" lon="1.88359">
        <ele>116</ele>
        <time>2023-01-08T21:52:26Z</time>
      </trkpt>
      <trkpt lat="49.12146" lon="1.8815">
        <ele>111</ele>
        <time>2023-01-08T21:55:54Z</time>
      </trkpt>
      <trkpt lat="49.12221" lon="1.87992">
        <ele>111</ele>
        <time>2023-01-08T21:58:45Z</time>
      </trkpt>
      <trkpt lat="49.12226" lon="1.87973">
        <ele>112</ele>
        <time>2023-01-08T21:59:03Z</time>
      </trkpt>
      <trkpt lat="49.12234" lon="1.87971">
        <ele>112</ele>
        <time>2023-01-08T21:59:14Z</time>
      </trkpt>
      <trkpt lat="49.12247" lon="1.87955">
        <ele>113</ele>
        <time>2023-01-08T21:59:36Z</time>
      </trkpt>
      <trkpt lat="49.12268" lon="1.8791">
        <ele>113</ele>
        <time>2023-01-08T22:00:24Z</time>
      </trkpt>
      <trkpt lat="49.12275" lon="1.8789">
        <ele>113</ele>
        <time>2023-01-08T22:00:44Z</time>
      </trkpt>
      <trkpt lat="49.12284" lon="1.87834">
        <ele>113</ele>
        <time>2023-01-08T22:01:34Z</time>
      </trkpt>
      <trkpt lat="49.12307" lon="1.87752">
        <ele>114</ele>
        <time>2023-01-08T22:02:52Z</time>
      </trkpt>
      <trkpt lat="49.12356" lon="1.87643">
        <ele>113</ele>
        <time>2023-01-08T22:04:48Z</time>
      </trkpt>
      <trkpt lat="49.12385" lon="1.87559">
        <ele>113</ele>
        <time>2023-01-08T22:06:11Z</time>
      </trkpt>
      <trkpt lat="49.125" lon="1.8732">
        <ele>117</ele>
        <time>2023-01-08T22:10:30Z</time>
      </trkpt>
      <trkpt lat="49.12559" lon="1.87161">
        <ele>118</ele>
        <time>2023-01-08T22:13:09Z</time>
      </trkpt>
      <trkpt lat="49.12617" lon="1.87028">
        <ele>119</ele>
        <time>2023-01-08T22:15:29Z</time>
      </trkpt>
      <trkpt lat="49.12646" lon="1.86947">
        <ele>122</ele>
        <time>2023-01-08T22:16:49Z</time>
      </trkpt>
      <trkpt lat="49.12706" lon="1.86811">
        <ele>124</ele>
        <time>2023-01-08T22:19:13Z</time>
      </trkpt>
      <trkpt lat="49.12698" lon="1.86814">
        <ele>124</ele>
        <time>2023-01-08T22:19:24Z</time>
      </trkpt>
      <trkpt lat="49.12692" lon="1.86785">
        <ele>124</ele>
        <time>2023-01-08T22:19:50Z</time>
      </trkpt>
      <trkpt lat="49.12712" lon="1.86594">
        <ele>122</ele>
        <time>2023-01-08T22:22:39Z</time>
      </trkpt>
      <trkpt lat="49.12715" lon="1.86356">
        <ele>124</ele>
        <time>2023-01-08T22:26:07Z</time>
      </trkpt>
      <trkpt lat="49.12726" lon="1.86231">
        <ele>127</ele>
        <time>2023-01-08T22:27:57Z</time>
      </trkpt>
      <trkpt lat="49.12726" lon="1.86146">
        <ele>128</ele>
        <time>2023-01-08T22:29:11Z</time>
      </trkpt>
      <trkpt lat="49.12736" lon="1.8607">
        <ele>130</ele>
        <time>2023-01-08T22:30:19Z</time>
      </trkpt>
      <trkpt lat="49.12736" lon="1.86018">
        <ele>131</ele>
        <time>2023-01-08T22:31:05Z</time>
      </trkpt>
      <trkpt lat="49.12743" lon="1.85964">
        <ele>132</ele>
        <time>2023-01-08T22:31:53Z</time>
      </trkpt>
      <trkpt lat="49.12743" lon="1.85884">
        <ele>133</ele>
        <time>2023-01-08T22:33:02Z</time>
      </trkpt>
      <trkpt lat="49.12751" lon="1.85847">
        <ele>134</ele>
        <time>2023-01-08T22:33:36Z</time>
      </trkpt>
      <trkpt lat="49.12759" lon="1.85731">
        <ele>134</ele>
        <time>2023-01-08T22:35:18Z</time>
      </trkpt>
      <trkpt lat="49.12765" lon="1.857">
        <ele>134</ele>
        <time>2023-01-08T22:35:47Z</time>
      </trkpt>
      <trkpt lat="49.12765" lon="1.85656">
        <ele>135</ele>
        <time>2023-01-08T22:36:25Z</time>
      </trkpt>
      <trkpt lat="49.12776" lon="1.85588">
        <ele>135</ele>
        <time>2023-01-08T22:37:26Z</time>
      </trkpt>
      <trkpt lat="49.12779" lon="1.85536">
        <ele>135</ele>
        <time>2023-01-08T22:38:12Z</time>
      </trkpt>
      <trkpt lat="49.12818" lon="1.85372">
        <ele>135</ele>
        <time>2023-01-08T22:40:44Z</time>
      </trkpt>
      <trkpt lat="49.1285" lon="1.85216">
        <ele>136</ele>
        <time>2023-01-08T22:43:07Z</time>
      </trkpt>
      <trkpt lat="49.12858" lon="1.85194">
        <ele>137</ele>
        <time>2023-01-08T22:43:29Z</time>
      </trkpt>
      <trkpt lat="49.12874" lon="1.85055">
        <ele>139</ele>
        <time>2023-01-08T22:45:32Z</time>
      </trkpt>
      <trkpt lat="49.12869" lon="1.85051">
        <ele>139</ele>
        <time>2023-01-08T22:45:40Z</time>
      </trkpt>
      <trkpt lat="49.12856" lon="1.85059">
        <ele>139</ele>
        <time>2023-01-08T22:45:58Z</time>
      </trkpt>
      <trkpt lat="49.12859" lon="1.85067">
        <ele>139</ele>
        <time>2023-01-08T22:46:06Z</time>
      </trkpt>
      <trkpt lat="49.12871" lon="1.85049">
        <ele>139</ele>
        <time>2023-01-08T22:46:29Z</time>
      </trkpt>
      <trkpt lat="49.12879" lon="1.84917">
        <ele>141</ele>
        <time>2023-01-08T22:48:25Z</time>
      </trkpt>
      <trkpt lat="49.12884" lon="1.84887">
        <ele>142</ele>
        <time>2023-01-08T22:48:52Z</time>
      </trkpt>
      <trkpt lat="49.1288" lon="1.84881">
        <ele>142</ele>
        <time>2023-01-08T22:48:59Z</time>
      </trkpt>
      <trkpt lat="49.12862" lon="1.84888">
        <ele>142</ele>
        <time>2023-01-08T22:49:24Z</time>
      </trkpt>
      <trkpt lat="49.12832" lon="1.84865">
        <ele>143</ele>
        <time>2023-01-08T22:50:09Z</time>
      </trkpt>
      <trkpt lat="49.12835" lon="1.84848">
        <ele>143</ele>
        <time>2023-01-08T22:50:24Z</time>
      </trkpt>
      <trkpt lat="49.12829" lon="1.84826">
        <ele>143</ele>
        <time>2023-01-08T22:50:45Z</time>
      </trkpt>
      <trkpt lat="49.12831" lon="1.84811">
        <ele>143</ele>
        <time>2023-01-08T22:50:58Z</time>
      </trkpt>
      <trkpt lat="49.12866" lon="1.84754">
        <ele>142</ele>
        <time>2023-01-08T22:52:06Z</time>
      </trkpt>
      <trkpt lat="49.12872" lon="1.8473">
        <ele>142</ele>
        <time>2023-01-08T22:52:29Z</time>
      </trkpt>
      <trkpt lat="49.12861" lon="1.8466">
        <ele>145</ele>
        <time>2023-01-08T22:53:32Z</time>
      </trkpt>
      <trkpt lat="49.12845" lon="1.84618">
        <ele>147</ele>
        <time>2023-01-08T22:54:14Z</time>
      </trkpt>
      <trkpt lat="49.12817" lon="1.84565">
        <ele>150</ele>
        <time>2023-01-08T22:55:14Z</time>
      </trkpt>
      <trkpt lat="49.12791" lon="1.84607">
        <ele>149</ele>
        <time>2023-01-08T22:56:04Z</time>
      </trkpt>
      <trkpt lat="49.12782" lon="1.84607">
        <ele>149</ele>
        <time>2023-01-08T22:56:16Z</time>
      </trkpt>
      <trkpt lat="49.12768" lon="1.84588">
        <ele>150</ele>
        <time>2023-01-08T22:56:41Z</time>
      </trkpt>
      <trkpt lat="49.12753" lon="1.84552">
        <ele>151</ele>
        <time>2023-01-08T22:57:18Z</time>
      </trkpt>
      <trkpt lat="49.12715" lon="1.84494">
        <ele>153</ele>
        <time>2023-01-08T22:58:30Z</time>
      </trkpt>
      <trkpt lat="49.1266" lon="1.84439">
        <ele>157</ele>
        <time>2023-01-08T22:59:58Z</time>
      </trkpt>
      <trkpt lat="49.12656" lon="1.84431">
        <ele>158</ele>
        <time>2023-01-08T23:00:07Z</time>
      </trkpt>
      <trkpt lat="49.12634" lon="1.84423">
        <ele>159</ele>
        <time>2023-01-08T23:00:37Z</time>
      </trkpt>
      <trkpt lat="49.12601" lon="1.84395">
        <ele>160</ele>
        <time>2023-01-08T23:01:27Z</time>
      </trkpt>
      <trkpt lat="49.1259" lon="1.84379">
        <ele>161</ele>
        <time>2023-01-08T23:01:47Z</time>
      </trkpt>
      <trkpt lat="49.12596" lon="1.84379">
        <ele>161</ele>
        <time>2023-01-08T23:01:55Z</time>
      </trkpt>
      <trkpt lat="49.12545" lon="1.84317">
        <ele>164</ele>
        <time>2023-01-08T23:03:22Z</time>
      </trkpt>
      <trkpt lat="49.12496" lon="1.84289">
        <ele>167</ele>
        <time>2023-01-08T23:04:32Z</time>
      </trkpt>
      <trkpt lat="49.12465" lon="1.84317">
        <ele>164</ele>
        <time>2023-01-08T23:05:20Z</time>
      </trkpt>
      <trkpt lat="49.12449" lon="1.84337">
        <ele>163</ele>
        <time>2023-01-08T23:05:48Z</time>
      </trkpt>
      <trkpt lat="49.12419" lon="1.84381">
        <ele>160</ele>
        <time>2023-01-08T23:06:43Z</time>
      </trkpt>
      <trkpt lat="49.12397" lon="1.8444">
        <ele>157</ele>
        <time>2023-01-08T23:07:43Z</time>
      </trkpt>
      <trkpt lat="49.12375" lon="1.84462">
        <ele>155</ele>
        <time>2023-01-08T23:08:18Z</time>
      </trkpt>
      <trkpt lat="49.1235" lon="1.84511">
        <ele>153</ele>
        <time>2023-01-08T23:09:12Z</time>
      </trkpt>
      <trkpt lat="49.12303" lon="1.84579">
        <ele>150</ele>
        <time>2023-01-08T23:10:38Z</time>
      </trkpt>
      <trkpt lat="49.12245" lon="1.84685">
        <ele>146</ele>
        <time>2023-01-08T23:12:39Z</time>
      </trkpt>
      <trkpt lat="49.12202" lon="1.84753">
        <ele>145</ele>
        <time>2023-01-08T23:14:02Z</time>
      </trkpt>
      <trkpt lat="49.12197" lon="1.84766">
        <ele>145</ele>
        <time>2023-01-08T23:14:15Z</time>
      </trkpt>
      <trkpt lat="49.12201" lon="1.84766">
        <ele>144</ele>
        <time>2023-01-08T23:14:20Z</time>
      </trkpt>
      <trkpt lat="49.12183" lon="1.84731">
        <ele>145</ele>
        <time>2023-01-08T23:14:59Z</time>
      </trkpt>
      <trkpt lat="49.12153" lon="1.84704">
        <ele>144</ele>
        <time>2023-01-08T23:15:45Z</time>
      </trkpt>
      <trkpt lat="49.12106" lon="1.84641">
        <ele>144</ele>
        <time>2023-01-08T23:17:09Z</time>
      </trkpt>
      <trkpt lat="49.1208" lon="1.84671">
        <ele>142</ele>
        <time>2023-01-08T23:17:52Z</time>
      </trkpt>
      <trkpt lat="49.12042" lon="1.84726">
        <ele>140</ele>
        <time>2023-01-08T23:19:02Z</time>
      </trkpt>
      <trkpt lat="49.11941" lon="1.84904">
        <ele>135</ele>
        <time>2023-01-08T23:22:28Z</time>
      </trkpt>
      <trkpt lat="49.11905" lon="1.84932">
        <ele>134</ele>
        <time>2023-01-08T23:23:22Z</time>
      </trkpt>
      <trkpt lat="49.11878" lon="1.8494">
        <ele>134</ele>
        <time>2023-01-08T23:23:59Z</time>
      </trkpt>
      <trkpt lat="49.11846" lon="1.84936">
        <ele>133</ele>
        <time>2023-01-08T23:24:41Z</time>
      </trkpt>
      <trkpt lat="49.11803" lon="1.84945">
        <ele>133</ele>
        <time>2023-01-08T23:25:39Z</time>
      </trkpt>
      <trkpt lat="49.11704" lon="1.84981">
        <ele>138</ele>
        <time>2023-01-08T23:27:55Z</time>
      </trkpt>
      <trkpt lat="49.11681" lon="1.8498">
        <ele>138</ele>
        <time>2023-01-08T23:28:26Z</time>
      </trkpt>
      <trkpt lat="49.11644" lon="1.84968">
        <ele>138</ele>
        <time>2023-01-08T23:29:16Z</time>
      </trkpt>
      <trkpt lat="49.11579" lon="1.8496">
        <ele>137</ele>
        <time>2023-01-08T23:30:43Z</time>
      </trkpt>
      <trkpt lat="49.11543" lon="1.84949">
        <ele>132</ele>
        <time>2023-01-08T23:31:32Z</time>
      </trkpt>
      <trkpt lat="49.1153" lon="1.8495">
        <ele>131</ele>
        <time>2023-01-08T23:31:50Z</time>
      </trkpt>
      <trkpt lat="49.11507" lon="1.84972">
        <ele>129</ele>
        <time>2023-01-08T23:32:26Z</time>
      </trkpt>
      <trkpt lat="49.11489" lon="1.84998">
        <ele>129</ele>
        <time>2023-01-08T23:32:59Z</time>
      </trkpt>
      <trkpt lat="49.11481" lon="1.85016">
        <ele>129</ele>
        <time>2023-01-08T23:33:18Z</time>
      </trkpt>
      <trkpt lat="49.11461" lon="1.85099">
        <ele>132</ele>
        <time>2023-01-08T23:34:35Z</time>
      </trkpt>
      <trkpt lat="49.11457" lon="1.85108">
        <ele>132</ele>
        <time>2023-01-08T23:34:45Z</time>
      </trkpt>
      <trkpt lat="49.11442" lon="1.85119">
        <ele>132</ele>
        <time>2023-01-08T23:35:07Z</time>
      </trkpt>
      <trkpt lat="49.11385" lon="1.85122">
        <ele>130</ele>
        <time>2023-01-08T23:36:23Z</time>
      </trkpt>
      <trkpt lat="49.11361" lon="1.85118">
        <ele>129</ele>
        <time>2023-01-08T23:36:55Z</time>
      </trkpt>
      <trkpt lat="49.11324" lon="1.85091">
        <ele>124</ele>
        <time>2023-01-08T23:37:50Z</time>
      </trkpt>
      <trkpt lat="49.11275" lon="1.85086">
        <ele>123</ele>
        <time>2023-01-08T23:38:56Z</time>
      </trkpt>
      <trkpt lat="49.11254" lon="1.85077">
        <ele>122</ele>
        <time>2023-01-08T23:39:25Z</time>
      </trkpt>
      <trkpt lat="49.11235" lon="1.8508">
        <ele>122</ele>
        <time>2023-01-08T23:39:50Z</time>
      </trkpt>
      <trkpt lat="49.11212" lon="1.8507">
        <ele>120</ele>
        <time>2023-01-08T23:40:22Z</time>
      </trkpt>
      <trkpt lat="49.11189" lon="1.85076">
        <ele>120</ele>
        <time>2023-01-08T23:40:53Z</time>
      </trkpt>
      <trkpt lat="49.11176" lon="1.85072">
        <ele>118</ele>
        <time>2023-01-08T23:41:11Z</time>
      </trkpt>
      <trkpt lat="49.11134" lon="1.85099">
        <ele>119</ele>
        <time>2023-01-08T23:42:12Z</time>
      </trkpt>
      <trkpt lat="49.11091" lon="1.85111">
        <ele>116</ele>
        <time>2023-01-08T23:43:10Z</time>
      </trkpt>
      <trkpt lat="49.11051" lon="1.85139">
        <ele>113</ele>
        <time>2023-01-08T23:44:09Z</time>
      </trkpt>
      <trkpt lat="49.11017" lon="1.85142">
        <ele>108</ele>
        <time>2023-01-08T23:44:54Z</time>
      </trkpt>
      <trkpt lat="49.10994" lon="1.85161">
        <ele>106</ele>
        <time>2023-01-08T23:45:29Z</time>
      </trkpt>
      <trkpt lat="49.10986" lon="1.8516">
        <ele>105</ele>
        <time>2023-01-08T23:45:40Z</time>
      </trkpt>
      <trkpt lat="49.10967" lon="1.85141">
        <ele>102</ele>
        <time>2023-01-08T23:46:10Z</time>
      </trkpt>
      <trkpt lat="49.10953" lon="1.85112">
        <ele>100</ele>
        <time>2023-01-08T23:46:42Z</time>
      </trkpt>
      <trkpt lat="49.10935" lon="1.85089">
        <ele>98</ele>
        <time>2023-01-08T23:47:13Z</time>
      </trkpt>
      <trkpt lat="49.10914" lon="1.8507">
        <ele>96</ele>
        <time>2023-01-08T23:47:45Z</time>
      </trkpt>
      <trkpt lat="49.10899" lon="1.85039">
        <ele>96</ele>
        <time>2023-01-08T23:48:19Z</time>
      </trkpt>
      <trkpt lat="49.10858" lon="1.84976">
        <ele>96</ele>
        <time>2023-01-08T23:49:37Z</time>
      </trkpt>
      <trkpt lat="49.10829" lon="1.84956">
        <ele>96</ele>
        <time>2023-01-08T23:50:19Z</time>
      </trkpt>
      <trkpt lat="49.10812" lon="1.84939">
        <ele>96</ele>
        <time>2023-01-08T23:50:46Z</time>
      </trkpt>
      <trkpt lat="49.10811" lon="1.84933">
        <ele>96</ele>
        <time>2023-01-08T23:50:52Z</time>
      </trkpt>
      <trkpt lat="49.108" lon="1.84927">
        <ele>96</ele>
        <time>2023-01-08T23:51:07Z</time>
      </trkpt>
      <trkpt lat="49.10719" lon="1.84855">
        <ele>97</ele>
        <time>2023-01-08T23:53:12Z</time>
      </trkpt>
      <trkpt lat="49.10714" lon="1.84848">
        <ele>97</ele>
        <time>2023-01-08T23:53:21Z</time>
      </trkpt>
      <trkpt lat="49.10714" lon="1.84829">
        <ele>97</ele>
        <time>2023-01-08T23:53:38Z</time>
      </trkpt>
      <trkpt lat="49.10709" lon="1.84827">
        <ele>97</ele>
        <time>2023-01-08T23:53:45Z</time>
      </trkpt>
      <trkpt lat="49.10713" lon="1.84826">
        <ele>97</ele>
        <time>2023-01-08T23:53:50Z</time>
      </trkpt>
      <trkpt lat="49.10327" lon="1.85009">
        <ele>111</ele>
        <time>2023-01-09T00:02:50Z</time>
      </trkpt>
      <trkpt lat="49.10254" lon="1.85089">
        <ele>110</ele>
        <time>2023-01-09T00:04:50Z</time>
      </trkpt>
      <trkpt lat="49.10234" lon="1.85106">
        <ele>109</ele>
        <time>2023-01-09T00:05:20Z</time>
      </trkpt>
      <trkpt lat="49.10196" lon="1.85153">
        <ele>106</ele>
        <time>2023-01-09T00:06:25Z</time>
      </trkpt>
      <trkpt lat="49.10162" lon="1.85181">
        <ele>107</ele>
        <time>2023-01-09T00:07:17Z</time>
      </trkpt>
      <trkpt lat="49.10121" lon="1.85243">
        <ele>110</ele>
        <time>2023-01-09T00:08:34Z</time>
      </trkpt>
      <trkpt lat="49.10076" lon="1.85346">
        <ele>112</ele>
        <time>2023-01-09T00:10:22Z</time>
      </trkpt>
      <trkpt lat="49.10072" lon="1.85369">
        <ele>113</ele>
        <time>2023-01-09T00:10:43Z</time>
      </trkpt>
      <trkpt lat="49.10038" lon="1.85468">
        <ele>117</ele>
        <time>2023-01-09T00:12:21Z</time>
      </trkpt>
      <trkpt lat="49.10019" lon="1.85542">
        <ele>117</ele>
        <time>2023-01-09T00:13:30Z</time>
      </trkpt>
      <trkpt lat="49.10014" lon="1.85581">
        <ele>116</ele>
        <time>2023-01-09T00:14:05Z</time>
      </trkpt>
      <trkpt lat="49.10019" lon="1.85591">
        <ele>115</ele>
        <time>2023-01-09T00:14:16Z</time>
      </trkpt>
      <trkpt lat="49.10017" lon="1.85608">
        <ele>114</ele>
        <time>2023-01-09T00:14:31Z</time>
      </trkpt>
      <trkpt lat="49.10002" lon="1.8564">
        <ele>115</ele>
        <time>2023-01-09T00:15:05Z</time>
      </trkpt>
      <trkpt lat="49.09894" lon="1.85734">
        <ele>120</ele>
        <time>2023-01-09T00:17:51Z</time>
      </trkpt>
      <trkpt lat="49.09851" lon="1.85759">
        <ele>124</ele>
        <time>2023-01-09T00:18:52Z</time>
      </trkpt>
      <trkpt lat="49.0983" lon="1.85766">
        <ele>126</ele>
        <time>2023-01-09T00:19:21Z</time>
      </trkpt>
      <trkpt lat="49.09776" lon="1.85768">
        <ele>128</ele>
        <time>2023-01-09T00:20:33Z</time>
      </trkpt>
      <trkpt lat="49.09763" lon="1.85765">
        <ele>129</ele>
        <time>2023-01-09T00:20:51Z</time>
      </trkpt>
      <trkpt lat="49.09732" lon="1.85777">
        <ele>129</ele>
        <time>2023-01-09T00:21:33Z</time>
      </trkpt>
      <trkpt lat="49.09693" lon="1.85763">
        <ele>130</ele>
        <time>2023-01-09T00:22:27Z</time>
      </trkpt>
      <trkpt lat="49.09683" lon="1.85744">
        <ele>130</ele>
        <time>2023-01-09T00:22:48Z</time>
      </trkpt>
      <trkpt lat="49.09678" lon="1.85746">
        <ele>130</ele>
        <time>2023-01-09T00:22:55Z</time>
      </trkpt>
      <trkpt lat="49.09673" lon="1.85758">
        <ele>130</ele>
        <time>2023-01-09T00:23:08Z</time>
      </trkpt>
      <trkpt lat="49.09655" lon="1.85743">
        <ele>130</ele>
        <time>2023-01-09T00:23:35Z</time>
      </trkpt>
      <trkpt lat="49.09645" lon="1.85742">
        <ele>129</ele>
        <time>2023-01-09T00:23:48Z</time>
      </trkpt>
      <trkpt lat="49.09603" lon="1.85791">
        <ele>128</ele>
        <time>2023-01-09T00:24:59Z</time>
      </trkpt>
      <trkpt lat="49.09569" lon="1.85848">
        <ele>127</ele>
        <time>2023-01-09T00:26:06Z</time>
      </trkpt>
      <trkpt lat="49.09503" lon="1.85999">
        <ele>131</ele>
        <time>2023-01-09T00:28:45Z</time>
      </trkpt>
      <trkpt lat="49.0948" lon="1.86037">
        <ele>133</ele>
        <time>2023-01-09T00:29:30Z</time>
      </trkpt>
      <trkpt lat="49.09465" lon="1.86049">
        <ele>133</ele>
        <time>2023-01-09T00:29:53Z</time>
      </trkpt>
      <trkpt lat="49.09454" lon="1.86065">
        <ele>134</ele>
        <time>2023-01-09T00:30:13Z</time>
      </trkpt>
      <trkpt lat="49.09431" lon="1.86117">
        <ele>135</ele>
        <time>2023-01-09T00:31:08Z</time>
      </trkpt>
      <trkpt lat="49.09416" lon="1.86138">
        <ele>136</ele>
        <time>2023-01-09T00:31:35Z</time>
      </trkpt>
      <trkpt lat="49.09398" lon="1.86184">
        <ele>136</ele>
        <time>2023-01-09T00:32:22Z</time>
      </trkpt>
      <trkpt lat="49.09382" lon="1.862">
        <ele>137</ele>
        <time>2023-01-09T00:32:47Z</time>
      </trkpt>
      <trkpt lat="49.09373" lon="1.86229">
        <ele>137</ele>
        <time>2023-01-09T00:33:15Z</time>
      </trkpt>
      <trkpt lat="49.09358" lon="1.86259">
        <ele>137</ele>
        <time>2023-01-09T00:33:48Z</time>
      </trkpt>
      <trkpt lat="49.0933" lon="1.86299">
        <ele>137</ele>
        <time>2023-01-09T00:34:39Z</time>
      </trkpt>
      <trkpt lat="49.09324" lon="1.86328">
        <ele>137</ele>
        <time>2023-01-09T00:35:06Z</time>
      </trkpt>
      <trkpt lat="49.09316" lon="1.86346">
        <ele>137</ele>
        <time>2023-01-09T00:35:25Z</time>
      </trkpt>
      <trkpt lat="49.09284" lon="1.86397">
        <ele>138</ele>
        <time>2023-01-09T00:36:27Z</time>
      </trkpt>
      <trkpt lat="49.09239" lon="1.86499">
        <ele>138</ele>
        <time>2023-01-09T00:38:14Z</time>
      </trkpt>
      <trkpt lat="49.0921" lon="1.86548">
        <ele>136</ele>
        <time>2023-01-09T00:39:12Z</time>
      </trkpt>
      <trkpt lat="49.09204" lon="1.86575">
        <ele>135</ele>
        <time>2023-01-09T00:39:37Z</time>
      </trkpt>
      <trkpt lat="49.09196" lon="1.86585">
        <ele>134</ele>
        <time>2023-01-09T00:39:51Z</time>
      </trkpt>
      <trkpt lat="49.09194" lon="1.86594">
        <ele>134</ele>
        <time>2023-01-09T00:39:59Z</time>
      </trkpt>
      <trkpt lat="49.09198" lon="1.86606">
        <ele>134</ele>
        <time>2023-01-09T00:40:11Z</time>
      </trkpt>
      <trkpt lat="49.09227" lon="1.86646">
        <ele>135</ele>
        <time>2023-01-09T00:41:03Z</time>
      </trkpt>
      <trkpt lat="49.09238" lon="1.86648">
        <ele>136</ele>
        <time>2023-01-09T00:41:18Z</time>
      </trkpt>
      <trkpt lat="49.0924" lon="1.86653">
        <ele>136</ele>
        <time>2023-01-09T00:41:23Z</time>
      </trkpt>
      <trkpt lat="49.09229" lon="1.86647">
        <ele>135</ele>
        <time>2023-01-09T00:41:38Z</time>
      </trkpt>
      <trkpt lat="49.09204" lon="1.86606">
        <ele>134</ele>
        <time>2023-01-09T00:42:27Z</time>
      </trkpt>
      <trkpt lat="49.09207" lon="1.86612">
        <ele>134</ele>
        <time>2023-01-09T00:42:34Z</time>
      </trkpt>
      <trkpt lat="49.09207" lon="1.86615">
        <ele>134</ele>
        <time>2023-01-09T00:42:37Z</time>
      </trkpt>
      <trkpt lat="49.09202" lon="1.86615">
        <ele>134</ele>
        <time>2023-01-09T00:42:43Z</time>
      </trkpt>
      <trkpt lat="49.09204" lon="1.86625">
        <ele>134</ele>
        <time>2023-01-09T00:42:52Z</time>
      </trkpt>
      <trkpt lat="49.0922" lon="1.86635">
        <ele>135</ele>
        <time>2023-01-09T00:43:15Z</time>
      </trkpt>
      <trkpt lat="49.09232" lon="1.86651">
        <ele>135</ele>
        <time>2023-01-09T00:43:37Z</time>
      </trkpt>
      <trkpt lat="49.09247" lon="1.86651">
        <ele>136</ele>
        <time>2023-01-09T00:43:57Z</time>
      </trkpt>
      <trkpt lat="49.09264" lon="1.86682">
        <ele>135</ele>
        <time>2023-01-09T00:44:32Z</time>
      </trkpt>
      <trkpt lat="49.09282" lon="1.86679">
        <ele>135</ele>
        <time>2023-01-09T00:44:56Z</time>
      </trkpt>
      <trkpt lat="49.093" lon="1.86704">
        <ele>134</ele>
        <time>2023-01-09T00:45:29Z</time>
      </trkpt>
      <trkpt lat="49.0931" lon="1.86706">
        <ele>134</ele>
        <time>2023-01-09T00:45:42Z</time>
      </trkpt>
      <trkpt lat="49.0932" lon="1.867">
        <ele>134</ele>
        <time>2023-01-09T00:45:56Z</time>
      </trkpt>
      <trkpt lat="49.09355" lon="1.86661">
        <ele>131</ele>
        <time>2023-01-09T00:46:54Z</time>
      </trkpt>
      <trkpt lat="49.09364" lon="1.86672">
        <ele>128</ele>
        <time>2023-01-09T00:47:10Z</time>
      </trkpt>
      <trkpt lat="49.09367" lon="1.86686">
        <ele>127</ele>
        <time>2023-01-09T00:47:23Z</time>
      </trkpt>
      <trkpt lat="49.09361" lon="1.86739">
        <ele>126</ele>
        <time>2023-01-09T00:48:10Z</time>
      </trkpt>
      <trkpt lat="49.09361" lon="1.86793">
        <ele>122</ele>
        <time>2023-01-09T00:48:57Z</time>
      </trkpt>
      <trkpt lat="49.09363" lon="1.86821">
        <ele>120</ele>
        <time>2023-01-09T00:49:21Z</time>
      </trkpt>
      <trkpt lat="49.09368" lon="1.86832">
        <ele>119</ele>
        <time>2023-01-09T00:49:33Z</time>
      </trkpt>
      <trkpt lat="49.09362" lon="1.86836">
        <ele>120</ele>
        <time>2023-01-09T00:49:42Z</time>
      </trkpt>
      <trkpt lat="49.0936" lon="1.86849">
        <ele>118</ele>
        <time>2023-01-09T00:49:53Z</time>
      </trkpt>
      <trkpt lat="49.09364" lon="1.86856">
        <ele>117</ele>
        <time>2023-01-09T00:50:02Z</time>
      </trkpt>
      <trkpt lat="49.09375" lon="1.86859">
        <ele>115</ele>
        <time>2023-01-09T00:50:16Z</time>
      </trkpt>
      <trkpt lat="49.0938" lon="1.8688">
        <ele>112</ele>
        <time>2023-01-09T00:50:36Z</time>
      </trkpt>
      <trkpt lat="49.09388" lon="1.86891">
        <ele>110</ele>
        <time>2023-01-09T00:50:50Z</time>
      </trkpt>
      <trkpt lat="49.09402" lon="1.86895">
        <ele>108</ele>
        <time>2023-01-09T00:51:09Z</time>
      </trkpt>
      <trkpt lat="49.09412" lon="1.86922">
        <ele>105</ele>
        <time>2023-01-09T00:51:36Z</time>
      </trkpt>
      <trkpt lat="49.09408" lon="1.86933">
        <ele>104</ele>
        <time>2023-01-09T00:51:47Z</time>
      </trkpt>
      <trkpt lat="49.09392" lon="1.86947">
        <ele>104</ele>
        <time>2023-01-09T00:52:12Z</time>
      </trkpt>
      <trkpt lat="49.09392" lon="1.8698">
        <ele>102</ele>
        <time>2023-01-09T00:52:41Z</time>
      </trkpt>
      <trkpt lat="49.09364" lon="1.87077">
        <ele>98</ele>
        <time>2023-01-09T00:54:14Z</time>
      </trkpt>
      <trkpt lat="49.09343" lon="1.87169">
        <ele>97</ele>
        <time>2023-01-09T00:55:39Z</time>
      </trkpt>
      <trkpt lat="49.09347" lon="1.8719">
        <ele>96</ele>
        <time>2023-01-09T00:55:58Z</time>
      </trkpt>
      <trkpt lat="49.09339" lon="1.87192">
        <ele>97</ele>
        <time>2023-01-09T00:56:09Z</time>
      </trkpt>
      <trkpt lat="49.09331" lon="1.872">
        <ele>97</ele>
        <time>2023-01-09T00:56:21Z</time>
      </trkpt>
      <trkpt lat="49.09326" lon="1.87217">
        <ele>97</ele>
        <time>2023-01-09T00:56:38Z</time>
      </trkpt>
      <trkpt lat="49.09315" lon="1.87333">
        <ele>96</ele>
        <time>2023-01-09T00:58:20Z</time>
      </trkpt>
      <trkpt lat="49.09312" lon="1.87449">
        <ele>96</ele>
        <time>2023-01-09T01:00:02Z</time>
      </trkpt>
      <trkpt lat="49.09299" lon="1.87513">
        <ele>96</ele>
        <time>2023-01-09T01:01:00Z</time>
      </trkpt>
      <trkpt lat="49.09218" lon="1.87727">
        <ele>94</ele>
        <time>2023-01-09T01:04:36Z</time>
      </trkpt>
      <trkpt lat="49.09187" lon="1.87832">
        <ele>94</ele>
        <time>2023-01-09T01:06:17Z</time>
      </trkpt>
      <trkpt lat="49.09156" lon="1.87906">
        <ele>94</ele>
        <time>2023-01-09T01:07:34Z</time>
      </trkpt>
      <trkpt lat="49.09119" lon="1.88023">
        <ele>93</ele>
        <time>2023-01-09T01:09:27Z</time>
      </trkpt>
      <trkpt lat="49.09106" lon="1.88051">
        <ele>93</ele>
        <time>2023-01-09T01:09:57Z</time>
      </trkpt>
      <trkpt lat="49.09067" lon="1.8819">
        <ele>91</ele>
        <time>2023-01-09T01:12:09Z</time>
      </trkpt>
      <trkpt lat="49.09052" lon="1.88227">
        <ele>90</ele>
        <time>2023-01-09T01:12:47Z</time>
      </trkpt>
      <trkpt lat="49.09031" lon="1.88316">
        <ele>89</ele>
        <time>2023-01-09T01:14:10Z</time>
      </trkpt>
      <trkpt lat="49.09005" lon="1.88393">
        <ele>89</ele>
        <time>2023-01-09T01:15:26Z</time>
      </trkpt>
      <trkpt lat="49.08966" lon="1.88574">
        <ele>87</ele>
        <time>2023-01-09T01:18:12Z</time>
      </trkpt>
      <trkpt lat="49.08954" lon="1.88664">
        <ele>86</ele>
        <time>2023-01-09T01:19:32Z</time>
      </trkpt>
      <trkpt lat="49.0895" lon="1.88732">
        <ele>87</ele>
        <time>2023-01-09T01:20:32Z</time>
      </trkpt>
      <trkpt lat="49.0894" lon="1.88764">
        <ele>87</ele>
        <time>2023-01-09T01:21:03Z</time>
      </trkpt>
      <trkpt lat="49.08931" lon="1.88855">
        <ele>87</ele>
        <time>2023-01-09T01:22:23Z</time>
      </trkpt>
      <trkpt lat="49.08914" lon="1.88931">
        <ele>85</ele>
        <time>2023-01-09T01:23:34Z</time>
      </trkpt>
      <trkpt lat="49.0889" lon="1.88995">
        <ele>85</ele>
        <time>2023-01-09T01:24:38Z</time>
      </trkpt>
      <trkpt lat="49.08865" lon="1.89042">
        <ele>85</ele>
        <time>2023-01-09T01:25:31Z</time>
      </trkpt>
      <trkpt lat="49.0883" lon="1.89127">
        <ele>86</ele>
        <time>2023-01-09T01:26:59Z</time>
      </trkpt>
      <trkpt lat="49.08812" lon="1.89159">
        <ele>87</ele>
        <time>2023-01-09T01:27:36Z</time>
      </trkpt>
      <trkpt lat="49.08802" lon="1.89204">
        <ele>88</ele>
        <time>2023-01-09T01:28:17Z</time>
      </trkpt>
      <trkpt lat="49.08776" lon="1.89243">
        <ele>88</ele>
        <time>2023-01-09T01:29:06Z</time>
      </trkpt>
      <trkpt lat="49.08739" lon="1.89325">
        <ele>86</ele>
        <time>2023-01-09T01:30:33Z</time>
      </trkpt>
      <trkpt lat="49.08717" lon="1.89361">
        <ele>86</ele>
        <time>2023-01-09T01:31:16Z</time>
      </trkpt>
      <trkpt lat="49.08711" lon="1.89365">
        <ele>85</ele>
        <time>2023-01-09T01:31:25Z</time>
      </trkpt>
      <trkpt lat="49.08706" lon="1.89379">
        <ele>85</ele>
        <time>2023-01-09T01:31:39Z</time>
      </trkpt>
      <trkpt lat="49.08698" lon="1.8944">
        <ele>84</ele>
        <time>2023-01-09T01:32:33Z</time>
      </trkpt>
      <trkpt lat="49.08681" lon="1.89501">
        <ele>82</ele>
        <time>2023-01-09T01:33:31Z</time>
      </trkpt>
      <trkpt lat="49.08677" lon="1.89588">
        <ele>79</ele>
        <time>2023-01-09T01:34:47Z</time>
      </trkpt>
      <trkpt lat="49.08666" lon="1.8963">
        <ele>78</ele>
        <time>2023-01-09T01:35:27Z</time>
      </trkpt>
      <trkpt lat="49.08666" lon="1.89678">
        <ele>78</ele>
        <time>2023-01-09T01:36:09Z</time>
      </trkpt>
      <trkpt lat="49.08641" lon="1.89684">
        <ele>78</ele>
        <time>2023-01-09T01:36:42Z</time>
      </trkpt>
      <trkpt lat="49.08645" lon="1.89682">
        <ele>78</ele>
        <time>2023-01-09T01:36:48Z</time>
      </trkpt>
      <trkpt lat="49.08648" lon="1.89687">
        <ele>78</ele>
        <time>2023-01-09T01:36:54Z</time>
      </trkpt>
      <trkpt lat="49.08626" lon="1.89683">
        <ele>78</ele>
        <time>2023-01-09T01:37:23Z</time>
      </trkpt>
      <trkpt lat="49.08596" lon="1.89672">
        <ele>77</ele>
        <time>2023-01-09T01:38:05Z</time>
      </trkpt>
      <trkpt lat="49.08565" lon="1.89647">
        <ele>78</ele>
        <time>2023-01-09T01:38:51Z</time>
      </trkpt>
      <trkpt lat="49.08534" lon="1.89678">
        <ele>78</ele>
        <time>2023-01-09T01:39:41Z</time>
      </trkpt>
      <trkpt lat="49.08527" lon="1.89704">
        <ele>78</ele>
        <time>2023-01-09T01:40:05Z</time>
      </trkpt>
      <trkpt lat="49.08498" lon="1.89763">
        <ele>77</ele>
        <time>2023-01-09T01:41:10Z</time>
      </trkpt>
      <trkpt lat="49.08489" lon="1.89772">
        <ele>77</ele>
        <time>2023-01-09T01:41:24Z</time>
      </trkpt>
      <trkpt lat="49.08479" lon="1.89774">
        <ele>77</ele>
        <time>2023-01-09T01:41:38Z</time>
      </trkpt>
      <trkpt lat="49.0844" lon="1.89756">
        <ele>77</ele>
        <time>2023-01-09T01:42:32Z</time>
      </trkpt>
      <trkpt lat="49.08427" lon="1.89761">
        <ele>77</ele>
        <time>2023-01-09T01:42:50Z</time>
      </trkpt>
      <trkpt lat="49.08421" lon="1.89772">
        <ele>76</ele>
        <time>2023-01-09T01:43:02Z</time>
      </trkpt>
      <trkpt lat="49.08398" lon="1.89865">
        <ele>75</ele>
        <time>2023-01-09T01:44:29Z</time>
      </trkpt>
      <trkpt lat="49.08386" lon="1.89971">
        <ele>74</ele>
        <time>2023-01-09T01:46:03Z</time>
      </trkpt>
      <trkpt lat="49.08369" lon="1.90011">
        <ele>74</ele>
        <time>2023-01-09T01:46:45Z</time>
      </trkpt>
      <trkpt lat="49.08326" lon="1.90191">
        <ele>74</ele>
        <time>2023-01-09T01:49:33Z</time>
      </trkpt>
      <trkpt lat="49.08295" lon="1.90283">
        <ele>75</ele>
        <time>2023-01-09T01:51:03Z</time>
      </trkpt>
      <trkpt lat="49.08279" lon="1.90356">
        <ele>74</ele>
        <time>2023-01-09T01:52:10Z</time>
      </trkpt>
      <trkpt lat="49.08265" lon="1.90392">
        <ele>74</ele>
        <time>2023-01-09T01:52:47Z</time>
      </trkpt>
      <trkpt lat="49.08257" lon="1.90431">
        <ele>74</ele>
        <time>2023-01-09T01:53:23Z</time>
      </trkpt>
      <trkpt lat="49.08171" lon="1.90724">
        <ele>73</ele>
        <time>2023-01-09T01:58:03Z</time>
      </trkpt>
      <trkpt lat="49.0815" lon="1.9077">
        <ele>73</ele>
        <time>2023-01-09T01:58:52Z</time>
      </trkpt>
      <trkpt lat="49.08132" lon="1.90827">
        <ele>73</ele>
        <time>2023-01-09T01:59:47Z</time>
      </trkpt>
      <trkpt lat="49.08112" lon="1.90866">
        <ele>72</ele>
        <time>2023-01-09T02:00:31Z</time>
      </trkpt>
      <trkpt lat="49.0807" lon="1.90973">
        <ele>70</ele>
        <time>2023-01-09T02:02:20Z</time>
      </trkpt>
      <trkpt lat="49.08047" lon="1.91006">
        <ele>70</ele>
        <time>2023-01-09T02:03:02Z</time>
      </trkpt>
      <trkpt lat="49.08015" lon="1.91064">
        <ele>69</ele>
        <time>2023-01-09T02:04:08Z</time>
      </trkpt>
      <trkpt lat="49.07972" lon="1.91123">
        <ele>69</ele>
        <time>2023-01-09T02:05:25Z</time>
      </trkpt>
      <trkpt lat="49.07923" lon="1.91175">
        <ele>68</ele>
        <time>2023-01-09T02:06:45Z</time>
      </trkpt>
      <trkpt lat="49.07875" lon="1.91212">
        <ele>68</ele>
        <time>2023-01-09T02:07:57Z</time>
      </trkpt>
      <trkpt lat="49.07856" lon="1.91233">
        <ele>68</ele>
        <time>2023-01-09T02:08:28Z</time>
      </trkpt>
      <trkpt lat="49.07729" lon="1.91345">
        <ele>67</ele>
        <time>2023-01-09T02:11:44Z</time>
      </trkpt>
      <trkpt lat="49.0769" lon="1.91404">
        <ele>68</ele>
        <time>2023-01-09T02:12:57Z</time>
      </trkpt>
      <trkpt lat="49.07667" lon="1.91447">
        <ele>68</ele>
        <time>2023-01-09T02:13:46Z</time>
      </trkpt>
      <trkpt lat="49.07653" lon="1.91505">
        <ele>68</ele>
        <time>2023-01-09T02:14:40Z</time>
      </trkpt>
      <trkpt lat="49.07634" lon="1.91553">
        <ele>69</ele>
        <time>2023-01-09T02:15:29Z</time>
      </trkpt>
      <trkpt lat="49.07623" lon="1.91596">
        <ele>69</ele>
        <time>2023-01-09T02:16:09Z</time>
      </trkpt>
      <trkpt lat="49.07604" lon="1.91643">
        <ele>70</ele>
        <time>2023-01-09T02:16:57Z</time>
      </trkpt>
      <trkpt lat="49.07577" lon="1.91729">
        <ele>72</ele>
        <time>2023-01-09T02:18:21Z</time>
      </trkpt>
      <trkpt lat="49.07515" lon="1.91878">
        <ele>74</ele>
        <time>2023-01-09T02:20:55Z</time>
      </trkpt>
      <trkpt lat="49.07505" lon="1.91922">
        <ele>75</ele>
        <time>2023-01-09T02:21:36Z</time>
      </trkpt>
      <trkpt lat="49.07489" lon="1.91956">
        <ele>77</ele>
        <time>2023-01-09T02:22:12Z</time>
      </trkpt>
      <trkpt lat="49.07478" lon="1.9195">
        <ele>77</ele>
        <time>2023-01-09T02:22:28Z</time>
      </trkpt>
      <trkpt lat="49.07482" lon="1.91958">
        <ele>77</ele>
        <time>2023-01-09T02:22:37Z</time>
      </trkpt>
      <trkpt lat="49.0748" lon="1.91974">
        <ele>78</ele>
        <time>2023-01-09T02:22:51Z</time>
      </trkpt>
      <trkpt lat="49.0747" lon="1.92014">
        <ele>79</ele>
        <time>2023-01-09T02:23:28Z</time>
      </trkpt>
      <trkpt lat="49.07461" lon="1.92034">
        <ele>79</ele>
        <time>2023-01-09T02:23:50Z</time>
      </trkpt>
      <trkpt lat="49.07433" lon="1.92172">
        <ele>79</ele>
        <time>2023-01-09T02:25:56Z</time>
      </trkpt>
      <trkpt lat="49.07414" lon="1.92226">
        <ele>76</ele>
        <time>2023-01-09T02:26:49Z</time>
      </trkpt>
      <trkpt lat="49.07408" lon="1.92287">
        <ele>76</ele>
        <time>2023-01-09T02:27:43Z</time>
      </trkpt>
      <trkpt lat="49.07369" lon="1.92435">
        <ele>74</ele>
        <time>2023-01-09T02:30:03Z</time>
      </trkpt>
      <trkpt lat="49.07359" lon="1.92495">
        <ele>72</ele>
        <time>2023-01-09T02:30:57Z</time>
      </trkpt>
      <trkpt lat="49.07346" lon="1.92538">
        <ele>70</ele>
        <time>2023-01-09T02:31:38Z</time>
      </trkpt>
      <trkpt lat="49.07348" lon="1.92552">
        <ele>70</ele>
        <time>2023-01-09T02:31:51Z</time>
      </trkpt>
    </trkseg>
  </trk>
</gpx>